PSGAM SNLN-SDAG
Flight info
| Callsign | PSGAM |
|---|---|
| Flight time | 1h 24m |
| Altitude | 38000 |
| Route | DCT EGDEB UZ95 GIKTO UN401 MOLSU Z10 SIDUR DCT |
| Aircraft | C525/L-SDFGRWY/SB1 |
Departure
| Time | 2026-05-06 20:05 |
|---|---|
| Airport | Linhares Municipal Airport (SNLN) |
Arrival
| Time | 2026-05-06 21:30 |
|---|---|
| Airport | Angra dos Reis Airport (SDAG) |
| Time | Latitude | Longitude | Altitude | Speed | Heading |
|---|---|---|---|---|---|
| 2026-05-06 19:47 | -19.35781 | -40.06956 | 128 ft | 0 kts | 61° |
| 2026-05-06 20:03 | -19.35780 | -40.06954 | 128 ft | 0 kts | 31° |
| 2026-05-06 20:03 | -19.35770 | -40.06963 | 128 ft | 3 kts | 302° |
| 2026-05-06 20:03 | -19.35744 | -40.06998 | 129 ft | 7 kts | 332° |
| 2026-05-06 20:03 | -19.35680 | -40.06966 | 128 ft | 15 kts | 22° |
| 2026-05-06 20:04 | -19.35553 | -40.06897 | 127 ft | 25 kts | 22° |
| 2026-05-06 20:04 | -19.35420 | -40.06922 | 125 ft | 12 kts | 336° |
| 2026-05-06 20:04 | -19.35306 | -40.06962 | 123 ft | 21 kts | 345° |
| 2026-05-06 20:04 | -19.35328 | -40.07025 | 122 ft | 19 kts | 205° |
| 2026-05-06 20:05 | -19.35663 | -40.07200 | 127 ft | 86 kts | 204° |
| 2026-05-06 20:05 | -19.36354 | -40.07577 | 233 ft | 126 kts | 202° |
| 2026-05-06 20:05 | -19.37186 | -40.07968 | 653 ft | 136 kts | 199° |
| 2026-05-06 20:05 | -19.38191 | -40.08332 | 1046 ft | 160 kts | 205° |
| 2026-05-06 20:06 | -19.38986 | -40.09024 | 1877 ft | 151 kts | 221° |
| 2026-05-06 20:06 | -19.39727 | -40.09801 | 2521 ft | 151 kts | 222° |
| 2026-05-06 20:06 | -19.40472 | -40.10573 | 3142 ft | 152 kts | 221° |
| 2026-05-06 20:06 | -19.41242 | -40.11334 | 3728 ft | 155 kts | 220° |
| 2026-05-06 20:07 | -19.42047 | -40.12096 | 4321 ft | 157 kts | 218° |
| 2026-05-06 20:07 | -19.42873 | -40.12850 | 4896 ft | 159 kts | 218° |
| 2026-05-06 20:07 | -19.43712 | -40.13597 | 5457 ft | 161 kts | 217° |
| 2026-05-06 20:07 | -19.44584 | -40.14358 | 6040 ft | 162 kts | 217° |
| 2026-05-06 20:08 | -19.45460 | -40.15112 | 6583 ft | 164 kts | 217° |
| 2026-05-06 20:08 | -19.46351 | -40.15872 | 7115 ft | 166 kts | 216° |
| 2026-05-06 20:08 | -19.47246 | -40.16630 | 7651 ft | 167 kts | 216° |
| 2026-05-06 20:08 | -19.48151 | -40.17392 | 8153 ft | 170 kts | 216° |
| 2026-05-06 20:09 | -19.49084 | -40.18175 | 8687 ft | 170 kts | 216° |
| 2026-05-06 20:09 | -19.50017 | -40.18956 | 9186 ft | 172 kts | 216° |
| 2026-05-06 20:09 | -19.50955 | -40.19739 | 9668 ft | 174 kts | 216° |
| 2026-05-06 20:09 | -19.51893 | -40.20523 | 10191 ft | 172 kts | 216° |
| 2026-05-06 20:10 | -19.52852 | -40.21322 | 10663 ft | 174 kts | 216° |
| 2026-05-06 20:10 | -19.53798 | -40.22110 | 11178 ft | 174 kts | 217° |
| 2026-05-06 20:10 | -19.54733 | -40.22889 | 11656 ft | 174 kts | 217° |
| 2026-05-06 20:10 | -19.55682 | -40.23678 | 12141 ft | 173 kts | 217° |
| 2026-05-06 20:11 | -19.56636 | -40.24472 | 12600 ft | 174 kts | 217° |
| 2026-05-06 20:11 | -19.57578 | -40.25257 | 13038 ft | 175 kts | 217° |
| 2026-05-06 20:11 | -19.58537 | -40.26055 | 13500 ft | 175 kts | 217° |
| 2026-05-06 20:11 | -19.59492 | -40.26849 | 13895 ft | 177 kts | 217° |
| 2026-05-06 20:12 | -19.60467 | -40.27660 | 14327 ft | 178 kts | 216° |
| 2026-05-06 20:12 | -19.61443 | -40.28472 | 14759 ft | 178 kts | 216° |
| 2026-05-06 20:12 | -19.62427 | -40.29292 | 15168 ft | 180 kts | 216° |
| 2026-05-06 20:12 | -19.63405 | -40.30106 | 15579 ft | 180 kts | 216° |
| 2026-05-06 20:13 | -19.64398 | -40.30932 | 15974 ft | 182 kts | 216° |
| 2026-05-06 20:13 | -19.65395 | -40.31762 | 16364 ft | 182 kts | 216° |
| 2026-05-06 20:13 | -19.66392 | -40.32592 | 16740 ft | 184 kts | 216° |
| 2026-05-06 20:13 | -19.67386 | -40.33421 | 17120 ft | 184 kts | 215° |
| 2026-05-06 20:14 | -19.68400 | -40.34265 | 17491 ft | 185 kts | 215° |
| 2026-05-06 20:14 | -19.69422 | -40.35116 | 17870 ft | 186 kts | 215° |
| 2026-05-06 20:14 | -19.70433 | -40.35959 | 18229 ft | 187 kts | 215° |
| 2026-05-06 20:14 | -19.71459 | -40.36814 | 18594 ft | 187 kts | 215° |
| 2026-05-06 20:15 | -19.72488 | -40.37672 | 18953 ft | 188 kts | 215° |
| 2026-05-06 20:15 | -19.73511 | -40.38525 | 19312 ft | 188 kts | 216° |
| 2026-05-06 20:15 | -19.74549 | -40.39390 | 19670 ft | 189 kts | 216° |
| 2026-05-06 20:15 | -19.75577 | -40.40247 | 20024 ft | 189 kts | 216° |
| 2026-05-06 20:16 | -19.76618 | -40.41117 | 20369 ft | 189 kts | 216° |
| 2026-05-06 20:16 | -19.77654 | -40.41981 | 20708 ft | 190 kts | 216° |
| 2026-05-06 20:16 | -19.78686 | -40.42842 | 21032 ft | 190 kts | 216° |
| 2026-05-06 20:16 | -19.79729 | -40.43713 | 21356 ft | 191 kts | 216° |
| 2026-05-06 20:17 | -19.80774 | -40.44584 | 21680 ft | 191 kts | 216° |
| 2026-05-06 20:17 | -19.81823 | -40.45460 | 21994 ft | 192 kts | 216° |
| 2026-05-06 20:17 | -19.82871 | -40.46336 | 22317 ft | 192 kts | 217° |
| 2026-05-06 20:17 | -19.83918 | -40.47210 | 22636 ft | 191 kts | 217° |
| 2026-05-06 20:18 | -19.84972 | -40.48090 | 22938 ft | 192 kts | 217° |
| 2026-05-06 20:18 | -19.86015 | -40.48962 | 23250 ft | 192 kts | 216° |
| 2026-05-06 20:18 | -19.87076 | -40.49848 | 23535 ft | 193 kts | 216° |
| 2026-05-06 20:18 | -19.88141 | -40.50737 | 23797 ft | 196 kts | 216° |
| 2026-05-06 20:19 | -19.89210 | -40.51631 | 24118 ft | 195 kts | 216° |
| 2026-05-06 20:19 | -19.90273 | -40.52520 | 24367 ft | 197 kts | 216° |
| 2026-05-06 20:19 | -19.91353 | -40.53423 | 24674 ft | 197 kts | 216° |
| 2026-05-06 20:19 | -19.92439 | -40.54331 | 24933 ft | 198 kts | 216° |
| 2026-05-06 20:20 | -19.93511 | -40.55227 | 25207 ft | 199 kts | 215° |
| 2026-05-06 20:20 | -19.94697 | -40.56001 | 25463 ft | 199 kts | 205° |
| 2026-05-06 20:20 | -19.95943 | -40.56646 | 25747 ft | 198 kts | 203° |
| 2026-05-06 20:20 | -19.97193 | -40.57262 | 26005 ft | 199 kts | 203° |
| 2026-05-06 20:21 | -19.98450 | -40.57876 | 26258 ft | 200 kts | 202° |
| 2026-05-06 20:21 | -19.99724 | -40.58499 | 26528 ft | 200 kts | 202° |
| 2026-05-06 20:21 | -20.00993 | -40.59123 | 26768 ft | 201 kts | 202° |
| 2026-05-06 20:21 | -20.02252 | -40.59742 | 27016 ft | 202 kts | 202° |
| 2026-05-06 20:22 | -20.03525 | -40.60370 | 27285 ft | 201 kts | 202° |
| 2026-05-06 20:22 | -20.04805 | -40.61003 | 27508 ft | 203 kts | 202° |
| 2026-05-06 20:22 | -20.06088 | -40.61637 | 27756 ft | 202 kts | 202° |
| 2026-05-06 20:22 | -20.07363 | -40.62269 | 28009 ft | 202 kts | 202° |
| 2026-05-06 20:23 | -20.08650 | -40.62908 | 28233 ft | 203 kts | 202° |
| 2026-05-06 20:23 | -20.09932 | -40.63547 | 28487 ft | 203 kts | 202° |
| 2026-05-06 20:23 | -20.11225 | -40.64193 | 28684 ft | 205 kts | 202° |
| 2026-05-06 20:23 | -20.12517 | -40.64840 | 28962 ft | 203 kts | 202° |
| 2026-05-06 20:24 | -20.13821 | -40.65491 | 29123 ft | 207 kts | 203° |
| 2026-05-06 20:24 | -20.15113 | -40.66137 | 29407 ft | 204 kts | 202° |
| 2026-05-06 20:24 | -20.16411 | -40.66786 | 29584 ft | 207 kts | 203° |
| 2026-05-06 20:24 | -20.17713 | -40.67437 | 29811 ft | 206 kts | 203° |
| 2026-05-06 20:25 | -20.19027 | -40.68095 | 30001 ft | 207 kts | 203° |
| 2026-05-06 20:25 | -20.20327 | -40.68745 | 30200 ft | 207 kts | 203° |
| 2026-05-06 20:25 | -20.21643 | -40.69403 | 30356 ft | 209 kts | 203° |
| 2026-05-06 20:25 | -20.22970 | -40.70066 | 30601 ft | 207 kts | 203° |
| 2026-05-06 20:26 | -20.24281 | -40.70720 | 30743 ft | 210 kts | 203° |
| 2026-05-06 20:26 | -20.25612 | -40.71384 | 30938 ft | 210 kts | 203° |
| 2026-05-06 20:26 | -20.26937 | -40.72045 | 31151 ft | 208 kts | 203° |
| 2026-05-06 20:26 | -20.28255 | -40.72702 | 31265 ft | 212 kts | 203° |
| 2026-05-06 20:27 | -20.29597 | -40.73371 | 31465 ft | 211 kts | 203° |
| 2026-05-06 20:27 | -20.30929 | -40.74036 | 31655 ft | 211 kts | 202° |
| 2026-05-06 20:27 | -20.32247 | -40.74695 | 31840 ft | 210 kts | 203° |
| 2026-05-06 20:27 | -20.33576 | -40.75358 | 32003 ft | 211 kts | 203° |
| 2026-05-06 20:28 | -20.34913 | -40.76026 | 32167 ft | 211 kts | 203° |
| 2026-05-06 20:28 | -20.36243 | -40.76690 | 32317 ft | 212 kts | 203° |
| 2026-05-06 20:28 | -20.37588 | -40.77362 | 32478 ft | 212 kts | 203° |
| 2026-05-06 20:28 | -20.38937 | -40.78037 | 32641 ft | 212 kts | 203° |
| 2026-05-06 20:29 | -20.40276 | -40.78706 | 32752 ft | 214 kts | 203° |
| 2026-05-06 20:29 | -20.41615 | -40.79377 | 32942 ft | 213 kts | 203° |
| 2026-05-06 20:29 | -20.42970 | -40.80054 | 33068 ft | 214 kts | 203° |
| 2026-05-06 20:29 | -20.44325 | -40.80731 | 33205 ft | 215 kts | 203° |
| 2026-05-06 20:30 | -20.45684 | -40.81412 | 33372 ft | 214 kts | 203° |
| 2026-05-06 20:30 | -20.48384 | -40.82764 | 33662 ft | 216 kts | 202° |
| 2026-05-06 20:30 | -20.49742 | -40.83444 | 33871 ft | 214 kts | 203° |
| 2026-05-06 20:31 | -20.51113 | -40.84130 | 33998 ft | 216 kts | 203° |
| 2026-05-06 20:31 | -20.52479 | -40.84815 | 34130 ft | 217 kts | 203° |
| 2026-05-06 20:31 | -20.53839 | -40.85496 | 34334 ft | 215 kts | 203° |
| 2026-05-06 20:31 | -20.55201 | -40.86179 | 34449 ft | 216 kts | 203° |
| 2026-05-06 20:32 | -20.56568 | -40.86864 | 34593 ft | 217 kts | 203° |
| 2026-05-06 20:32 | -20.57922 | -40.87543 | 34768 ft | 216 kts | 203° |
| 2026-05-06 20:32 | -20.59280 | -40.88223 | 34916 ft | 216 kts | 203° |
| 2026-05-06 20:32 | -20.60661 | -40.88913 | 35026 ft | 217 kts | 202° |
| 2026-05-06 20:33 | -20.62013 | -40.89589 | 35193 ft | 216 kts | 203° |
| 2026-05-06 20:33 | -20.63398 | -40.90281 | 35323 ft | 217 kts | 203° |
| 2026-05-06 20:33 | -20.64766 | -40.90964 | 35431 ft | 218 kts | 203° |
| 2026-05-06 20:33 | -20.66136 | -40.91650 | 35595 ft | 217 kts | 203° |
| 2026-05-06 20:34 | -20.67520 | -40.92341 | 35715 ft | 218 kts | 203° |
| 2026-05-06 20:34 | -20.68893 | -40.93028 | 35862 ft | 217 kts | 203° |
| 2026-05-06 20:34 | -20.70263 | -40.93714 | 35967 ft | 218 kts | 203° |
| 2026-05-06 20:34 | -20.71625 | -40.94395 | 36120 ft | 217 kts | 203° |
| 2026-05-06 20:35 | -20.73002 | -40.95085 | 36218 ft | 218 kts | 202° |
| 2026-05-06 20:35 | -20.74376 | -40.95773 | 36360 ft | 217 kts | 203° |
| 2026-05-06 20:35 | -20.75761 | -40.96466 | 36421 ft | 220 kts | 203° |
| 2026-05-06 20:35 | -20.77142 | -40.97157 | 36506 ft | 221 kts | 203° |
| 2026-05-06 20:36 | -20.78548 | -40.97861 | 36635 ft | 221 kts | 203° |
| 2026-05-06 20:36 | -20.79936 | -40.98557 | 36718 ft | 222 kts | 203° |
| 2026-05-06 20:36 | -20.81321 | -40.99251 | 36881 ft | 219 kts | 203° |
| 2026-05-06 20:36 | -20.82715 | -40.99950 | 36948 ft | 221 kts | 203° |
| 2026-05-06 20:37 | -20.84116 | -41.00652 | 37070 ft | 221 kts | 203° |
| 2026-05-06 20:37 | -20.85467 | -41.01433 | 37141 ft | 224 kts | 213° |
| 2026-05-06 20:37 | -20.86626 | -41.02560 | 37276 ft | 225 kts | 221° |
| 2026-05-06 20:37 | -20.87690 | -41.03788 | 37383 ft | 225 kts | 223° |
| 2026-05-06 20:38 | -20.88734 | -41.05038 | 37434 ft | 227 kts | 223° |
| 2026-05-06 20:38 | -20.89786 | -41.06309 | 37542 ft | 227 kts | 224° |
| 2026-05-06 20:38 | -20.90837 | -41.07578 | 37631 ft | 227 kts | 223° |
| 2026-05-06 20:38 | -20.91885 | -41.08841 | 37736 ft | 227 kts | 223° |
| 2026-05-06 20:39 | -20.92930 | -41.10100 | 37789 ft | 228 kts | 223° |
| 2026-05-06 20:39 | -20.93984 | -41.11369 | 37929 ft | 226 kts | 223° |
| 2026-05-06 20:39 | -20.95025 | -41.12620 | 37984 ft | 227 kts | 223° |
| 2026-05-06 20:39 | -20.96081 | -41.13889 | 38076 ft | 227 kts | 223° |
| 2026-05-06 20:40 | -20.97126 | -41.15145 | 38142 ft | 227 kts | 223° |
| 2026-05-06 20:40 | -20.98175 | -41.16404 | 38150 ft | 230 kts | 223° |
| 2026-05-06 20:40 | -20.99251 | -41.17696 | 38168 ft | 233 kts | 223° |
| 2026-05-06 20:40 | -21.00336 | -41.18999 | 38175 ft | 236 kts | 223° |
| 2026-05-06 20:41 | -21.01434 | -41.20318 | 38180 ft | 239 kts | 224° |
| 2026-05-06 20:41 | -21.02544 | -41.21652 | 38176 ft | 242 kts | 224° |
| 2026-05-06 20:41 | -21.03684 | -41.23022 | 38177 ft | 246 kts | 224° |
| 2026-05-06 20:41 | -21.04819 | -41.24387 | 38173 ft | 249 kts | 224° |
| 2026-05-06 20:42 | -21.05989 | -41.25793 | 38181 ft | 252 kts | 223° |
| 2026-05-06 20:42 | -21.07162 | -41.27204 | 38176 ft | 256 kts | 224° |
| 2026-05-06 20:42 | -21.08358 | -41.28643 | 38172 ft | 260 kts | 224° |
| 2026-05-06 20:42 | -21.09556 | -41.30085 | 38166 ft | 263 kts | 224° |
| 2026-05-06 20:43 | -21.10789 | -41.31569 | 38168 ft | 267 kts | 224° |
| 2026-05-06 20:43 | -21.12027 | -41.33060 | 38164 ft | 271 kts | 224° |
| 2026-05-06 20:43 | -21.13285 | -41.34575 | 38158 ft | 275 kts | 224° |
| 2026-05-06 20:43 | -21.14577 | -41.36132 | 38151 ft | 279 kts | 224° |
| 2026-05-06 20:44 | -21.15876 | -41.37698 | 38152 ft | 283 kts | 224° |
| 2026-05-06 20:44 | -21.17188 | -41.39280 | 38145 ft | 286 kts | 224° |
| 2026-05-06 20:44 | -21.18520 | -41.40887 | 38146 ft | 290 kts | 224° |
| 2026-05-06 20:44 | -21.19861 | -41.42504 | 38140 ft | 293 kts | 224° |
| 2026-05-06 20:45 | -21.21205 | -41.44126 | 38131 ft | 296 kts | 224° |
| 2026-05-06 20:45 | -21.22596 | -41.45805 | 38131 ft | 299 kts | 224° |
| 2026-05-06 20:45 | -21.23988 | -41.47487 | 38130 ft | 301 kts | 224° |
| 2026-05-06 20:46 | -21.26785 | -41.50866 | 38122 ft | 306 kts | 224° |
| 2026-05-06 20:46 | -21.29633 | -41.54310 | 38130 ft | 309 kts | 224° |
| 2026-05-06 20:47 | -21.32499 | -41.57779 | 38133 ft | 313 kts | 224° |
| 2026-05-06 20:47 | -21.35393 | -41.61284 | 38134 ft | 316 kts | 224° |
| 2026-05-06 20:48 | -21.38314 | -41.64825 | 38136 ft | 318 kts | 224° |
| 2026-05-06 20:48 | -21.41243 | -41.68378 | 38136 ft | 320 kts | 225° |
| 2026-05-06 20:49 | -21.44209 | -41.71978 | 38130 ft | 322 kts | 225° |
| 2026-05-06 20:49 | -21.47188 | -41.75596 | 38136 ft | 324 kts | 225° |
| 2026-05-06 20:50 | -21.50159 | -41.79207 | 38140 ft | 325 kts | 225° |
| 2026-05-06 20:50 | -21.53158 | -41.82854 | 38156 ft | 326 kts | 224° |
| 2026-05-06 20:51 | -21.56159 | -41.86505 | 38159 ft | 327 kts | 225° |
| 2026-05-06 20:51 | -21.59184 | -41.90190 | 38161 ft | 327 kts | 224° |
| 2026-05-06 20:52 | -21.62191 | -41.93854 | 38159 ft | 328 kts | 224° |
| 2026-05-06 20:52 | -21.65207 | -41.97532 | 38158 ft | 328 kts | 225° |
| 2026-05-06 20:53 | -21.68219 | -42.01208 | 38151 ft | 329 kts | 224° |
| 2026-05-06 20:53 | -21.71260 | -42.04921 | 38153 ft | 329 kts | 225° |
| 2026-05-06 20:54 | -21.74267 | -42.08595 | 38156 ft | 329 kts | 224° |
| 2026-05-06 20:54 | -21.77291 | -42.12292 | 38159 ft | 329 kts | 224° |
| 2026-05-06 20:55 | -21.80301 | -42.15976 | 38168 ft | 328 kts | 224° |
| 2026-05-06 20:55 | -21.83294 | -42.19666 | 38163 ft | 329 kts | 226° |
| 2026-05-06 20:56 | -21.85608 | -42.23975 | 38174 ft | 335 kts | 237° |
| 2026-05-06 20:56 | -21.87654 | -42.28464 | 38172 ft | 335 kts | 237° |
| 2026-05-06 20:57 | -21.89703 | -42.32991 | 38181 ft | 334 kts | 237° |
| 2026-05-06 20:57 | -21.91730 | -42.37460 | 38183 ft | 334 kts | 237° |
| 2026-05-06 20:58 | -21.93767 | -42.41946 | 38188 ft | 333 kts | 237° |
| 2026-05-06 20:58 | -21.95801 | -42.46425 | 38191 ft | 332 kts | 237° |
| 2026-05-06 20:59 | -21.97813 | -42.50859 | 38202 ft | 331 kts | 237° |
| 2026-05-06 20:59 | -21.99844 | -42.55337 | 38203 ft | 331 kts | 237° |
| 2026-05-06 21:00 | -22.01842 | -42.59746 | 38205 ft | 330 kts | 237° |
| 2026-05-06 21:00 | -22.03851 | -42.64181 | 38208 ft | 329 kts | 237° |
| 2026-05-06 21:01 | -22.05871 | -42.68646 | 38209 ft | 329 kts | 237° |
| 2026-05-06 21:01 | -22.07881 | -42.73037 | 38213 ft | 328 kts | 236° |
| 2026-05-06 21:02 | -22.09914 | -42.77443 | 38220 ft | 328 kts | 236° |
| 2026-05-06 21:02 | -22.11938 | -42.81833 | 38225 ft | 328 kts | 236° |
| 2026-05-06 21:03 | -22.13961 | -42.86228 | 38231 ft | 329 kts | 236° |
| 2026-05-06 21:03 | -22.16001 | -42.90665 | 38236 ft | 330 kts | 236° |
| 2026-05-06 21:04 | -22.18033 | -42.95091 | 38236 ft | 330 kts | 236° |
| 2026-05-06 21:04 | -22.20068 | -42.99529 | 38244 ft | 330 kts | 236° |
| 2026-05-06 21:05 | -22.22110 | -43.03977 | 37899 ft | 339 kts | 236° |
| 2026-05-06 21:05 | -22.23184 | -43.06312 | 37457 ft | 350 kts | 237° |
| 2026-05-06 21:05 | -22.24270 | -43.08676 | 36995 ft | 360 kts | 237° |
| 2026-05-06 21:05 | -22.25400 | -43.11142 | 36522 ft | 370 kts | 238° |
| 2026-05-06 21:06 | -22.26540 | -43.13630 | 36057 ft | 378 kts | 238° |
| 2026-05-06 21:06 | -22.27715 | -43.16205 | 35601 ft | 377 kts | 238° |
| 2026-05-06 21:06 | -22.28849 | -43.18705 | 35067 ft | 370 kts | 239° |
| 2026-05-06 21:06 | -22.29964 | -43.21161 | 34520 ft | 364 kts | 239° |
| 2026-05-06 21:07 | -22.31070 | -43.23597 | 33978 ft | 359 kts | 239° |
| 2026-05-06 21:07 | -22.32159 | -43.25991 | 33449 ft | 355 kts | 240° |
| 2026-05-06 21:07 | -22.33243 | -43.28373 | 32948 ft | 351 kts | 240° |
| 2026-05-06 21:07 | -22.34306 | -43.30711 | 32460 ft | 348 kts | 240° |
| 2026-05-06 21:08 | -22.35366 | -43.33043 | 31965 ft | 345 kts | 240° |
| 2026-05-06 21:08 | -22.36423 | -43.35368 | 31476 ft | 343 kts | 240° |
| 2026-05-06 21:08 | -22.37463 | -43.37655 | 30988 ft | 341 kts | 240° |
| 2026-05-06 21:08 | -22.38501 | -43.39940 | 30501 ft | 339 kts | 240° |
| 2026-05-06 21:09 | -22.39529 | -43.42204 | 30012 ft | 337 kts | 240° |
| 2026-05-06 21:09 | -22.40554 | -43.44463 | 29525 ft | 336 kts | 240° |
| 2026-05-06 21:09 | -22.41578 | -43.46719 | 29039 ft | 334 kts | 240° |
| 2026-05-06 21:09 | -22.42603 | -43.48980 | 28555 ft | 333 kts | 241° |
| 2026-05-06 21:10 | -22.43608 | -43.51196 | 28078 ft | 332 kts | 241° |
| 2026-05-06 21:10 | -22.44633 | -43.53450 | 27588 ft | 331 kts | 241° |
| 2026-05-06 21:10 | -22.45644 | -43.55671 | 27110 ft | 330 kts | 241° |
| 2026-05-06 21:10 | -22.46655 | -43.57894 | 26626 ft | 329 kts | 242° |
| 2026-05-06 21:11 | -22.47659 | -43.60101 | 26150 ft | 328 kts | 242° |
| 2026-05-06 21:11 | -22.48664 | -43.62311 | 25670 ft | 328 kts | 242° |
| 2026-05-06 21:11 | -22.49659 | -43.64500 | 25197 ft | 327 kts | 242° |
| 2026-05-06 21:11 | -22.50664 | -43.66713 | 24717 ft | 327 kts | 243° |
| 2026-05-06 21:12 | -22.51657 | -43.68902 | 24244 ft | 326 kts | 243° |
| 2026-05-06 21:12 | -22.52653 | -43.71097 | 23769 ft | 325 kts | 243° |
| 2026-05-06 21:12 | -22.53653 | -43.73303 | 23287 ft | 325 kts | 243° |
| 2026-05-06 21:12 | -22.54644 | -43.75497 | 22810 ft | 324 kts | 243° |
| 2026-05-06 21:13 | -22.55627 | -43.77677 | 22332 ft | 324 kts | 243° |
| 2026-05-06 21:13 | -22.56609 | -43.79855 | 21858 ft | 323 kts | 243° |
| 2026-05-06 21:13 | -22.57594 | -43.82039 | 21384 ft | 323 kts | 243° |
| 2026-05-06 21:13 | -22.58576 | -43.84220 | 20908 ft | 323 kts | 243° |
| 2026-05-06 21:14 | -22.59545 | -43.86372 | 20446 ft | 322 kts | 242° |
| 2026-05-06 21:14 | -22.60527 | -43.88552 | 19975 ft | 323 kts | 243° |
| 2026-05-06 21:14 | -22.61509 | -43.90735 | 19505 ft | 323 kts | 243° |
| 2026-05-06 21:14 | -22.62493 | -43.92922 | 19036 ft | 323 kts | 242° |
| 2026-05-06 21:15 | -22.63467 | -43.95089 | 18577 ft | 323 kts | 242° |
| 2026-05-06 21:15 | -22.64458 | -43.97293 | 18111 ft | 323 kts | 242° |
| 2026-05-06 21:15 | -22.65430 | -43.99456 | 17645 ft | 323 kts | 242° |
| 2026-05-06 21:15 | -22.66410 | -44.01640 | 17196 ft | 323 kts | 243° |
| 2026-05-06 21:16 | -22.67397 | -44.03839 | 16747 ft | 323 kts | 243° |
| 2026-05-06 21:16 | -22.68371 | -44.06010 | 16295 ft | 323 kts | 243° |
| 2026-05-06 21:16 | -22.69341 | -44.08173 | 15851 ft | 322 kts | 243° |
| 2026-05-06 21:16 | -22.70316 | -44.10348 | 15403 ft | 322 kts | 243° |
| 2026-05-06 21:17 | -22.71294 | -44.12531 | 14953 ft | 322 kts | 243° |
| 2026-05-06 21:17 | -22.72272 | -44.14714 | 14513 ft | 322 kts | 243° |
| 2026-05-06 21:17 | -22.73253 | -44.16906 | 14072 ft | 322 kts | 243° |
| 2026-05-06 21:17 | -22.74227 | -44.19082 | 13632 ft | 321 kts | 243° |
| 2026-05-06 21:18 | -22.75458 | -44.21046 | 13162 ft | 320 kts | 222° |
| 2026-05-06 21:18 | -22.77328 | -44.22306 | 12743 ft | 317 kts | 205° |
| 2026-05-06 21:18 | -22.79347 | -44.23272 | 12285 ft | 316 kts | 201° |
| 2026-05-06 21:18 | -22.81406 | -44.24154 | 11824 ft | 316 kts | 200° |
| 2026-05-06 21:19 | -22.83454 | -44.25002 | 11365 ft | 315 kts | 199° |
| 2026-05-06 21:19 | -22.85502 | -44.25840 | 10904 ft | 315 kts | 199° |
| 2026-05-06 21:19 | -22.87575 | -44.26684 | 10437 ft | 315 kts | 199° |
| 2026-05-06 21:19 | -22.89620 | -44.27515 | 9977 ft | 315 kts | 199° |
| 2026-05-06 21:20 | -22.91672 | -44.28347 | 9522 ft | 314 kts | 199° |
| 2026-05-06 21:20 | -22.93706 | -44.29172 | 9070 ft | 314 kts | 200° |
| 2026-05-06 21:20 | -22.95768 | -44.30008 | 8593 ft | 314 kts | 200° |
| 2026-05-06 21:20 | -22.97814 | -44.30837 | 8131 ft | 313 kts | 200° |
| 2026-05-06 21:21 | -22.99849 | -44.31661 | 7681 ft | 312 kts | 200° |
| 2026-05-06 21:21 | -23.01876 | -44.32482 | 7219 ft | 312 kts | 200° |
| 2026-05-06 21:21 | -23.03921 | -44.33310 | 6760 ft | 311 kts | 200° |
| 2026-05-06 21:21 | -23.05942 | -44.34129 | 6345 ft | 309 kts | 200° |
| 2026-05-06 21:22 | -23.07918 | -44.34930 | 6238 ft | 297 kts | 200° |
| 2026-05-06 21:22 | -23.09804 | -44.35695 | 6219 ft | 285 kts | 200° |
| 2026-05-06 21:22 | -23.11630 | -44.36511 | 6199 ft | 275 kts | 209° |
| 2026-05-06 21:22 | -23.12889 | -44.37989 | 6223 ft | 266 kts | 243° |
| 2026-05-06 21:23 | -23.13239 | -44.39913 | 6212 ft | 258 kts | 275° |
| 2026-05-06 21:23 | -23.12622 | -44.41658 | 6216 ft | 249 kts | 308° |
| 2026-05-06 21:23 | -23.11298 | -44.42831 | 6241 ft | 242 kts | 330° |
| 2026-05-06 21:23 | -23.09790 | -44.43632 | 6216 ft | 238 kts | 345° |
| 2026-05-06 21:24 | -23.08189 | -44.43540 | 6222 ft | 233 kts | 19° |
| 2026-05-06 21:24 | -23.06688 | -44.42765 | 5962 ft | 241 kts | 30° |
| 2026-05-06 21:24 | -23.05270 | -44.41814 | 5690 ft | 241 kts | 33° |
| 2026-05-06 21:24 | -23.03835 | -44.40785 | 5437 ft | 248 kts | 34° |
| 2026-05-06 21:25 | -23.02410 | -44.39695 | 5177 ft | 254 kts | 40° |
| 2026-05-06 21:25 | -23.01347 | -44.38236 | 4910 ft | 240 kts | 58° |
| 2026-05-06 21:25 | -23.00526 | -44.36710 | 4637 ft | 230 kts | 61° |
| 2026-05-06 21:25 | -22.99788 | -44.35214 | 4366 ft | 221 kts | 62° |
| 2026-05-06 21:26 | -22.99081 | -44.33754 | 4105 ft | 214 kts | 61° |
| 2026-05-06 21:26 | -22.98148 | -44.32540 | 3767 ft | 212 kts | 43° |
| 2026-05-06 21:26 | -22.97142 | -44.31392 | 3381 ft | 211 kts | 51° |
| 2026-05-06 21:26 | -22.96124 | -44.30204 | 2791 ft | 220 kts | 43° |
| 2026-05-06 21:27 | -22.94933 | -44.29207 | 2592 ft | 202 kts | 37° |
| 2026-05-06 21:27 | -22.93964 | -44.28440 | 2817 ft | 123 kts | 32° |
| 2026-05-06 21:27 | -22.93281 | -44.28173 | 2700 ft | 107 kts | 10° |
| 2026-05-06 21:27 | -22.92498 | -44.28026 | 2432 ft | 117 kts | 16° |
| 2026-05-06 21:28 | -22.91707 | -44.27748 | 2168 ft | 122 kts | 28° |
| 2026-05-06 21:28 | -22.91021 | -44.27307 | 2019 ft | 108 kts | 31° |
| 2026-05-06 21:28 | -22.90304 | -44.26990 | 1699 ft | 115 kts | 21° |
| 2026-05-06 21:28 | -22.89610 | -44.26652 | 1407 ft | 111 kts | 25° |
| 2026-05-06 21:29 | -22.88864 | -44.26592 | 1043 ft | 108 kts | 336° |
| 2026-05-06 21:29 | -22.88529 | -44.27192 | 826 ft | 102 kts | 273° |
| 2026-05-06 21:29 | -22.88905 | -44.27817 | 538 ft | 107 kts | 204° |
| 2026-05-06 21:29 | -22.89560 | -44.28213 | 204 ft | 104 kts | 218° |
| 2026-05-06 21:30 | -22.90081 | -44.28666 | 97 ft | 77 kts | 218° |
| 2026-05-06 21:30 | -22.90236 | -44.28803 | 96 ft | 6 kts | 223° |
| 2026-05-06 21:30 | -22.90267 | -44.28797 | 97 ft | 6 kts | 121° |
| 2026-05-06 21:30 | -22.90286 | -44.28767 | 107 ft | 8 kts | 122° |
| 2026-05-06 21:31 | -22.90277 | -44.28731 | 108 ft | 2 kts | 46° |
| 2026-05-06 21:31 | -22.90276 | -44.28726 | 108 ft | 0 kts | 120° |
| 2026-05-06 21:31 | -22.90278 | -44.28725 | 108 ft | 0 kts | 177° |